sensor_id;sensor_type;location;lat;lon;timestamp;temperature;humidity
9828;DHT22;4953;48.952;9.442;2022-12-07T05:01:14;4.20;99.90
9828;DHT22;4953;48.952;9.442;2022-12-07T05:03:41;4.20;99.90
9828;DHT22;4953;48.952;9.442;2022-12-07T05:06:10;4.30;99.90
9828;DHT22;4953;48.952;9.442;2022-12-07T05:08:38;4.30;99.90
9828;DHT22;4953;48.952;9.442;2022-12-07T05:11:05;4.40;99.90
9828;DHT22;4953;48.952;9.442;2022-12-07T05:13:33;4.30;99.90
9828;DHT22;4953;48.952;9.442;2022-12-07T05:16:00;4.30;99.90
9828;DHT22;4953;48.952;9.442;2022-12-07T05:18:28;4.30;99.90
9828;DHT22;4953;48.952;9.442;2022-12-07T05:20:55;4.40;99.90
9828;DHT22;4953;48.952;9.442;2022-12-07T05:23:22;4.30;99.90
9828;DHT22;4953;48.952;9.442;2022-12-07T05:25:49;4.40;99.90
9828;DHT22;4953;48.952;9.442;2022-12-07T05:28:16;4.30;99.90
9828;DHT22;4953;48.952;9.442;2022-12-07T05:30:43;4.30;99.90
9828;DHT22;4953;48.952;9.442;2022-12-07T05:33:10;4.30;99.90
9828;DHT22;4953;48.952;9.442;2022-12-07T05:35:38;4.30;99.90
9828;DHT22;4953;48.952;9.442;2022-12-07T05:38:05;4.30;99.90
9828;DHT22;4953;48.952;9.442;2022-12-07T05:40:32;4.30;99.90
9828;DHT22;4953;48.952;9.442;2022-12-07T05:42:59;4.30;99.90
9828;DHT22;4953;48.952;9.442;2022-12-07T05:45:26;4.30;99.90
9828;DHT22;4953;48.952;9.442;2022-12-07T05:47:53;4.40;99.90
9828;DHT22;4953;48.952;9.442;2022-12-07T05:50:20;4.40;99.90
9828;DHT22;4953;48.952;9.442;2022-12-07T05:52:48;4.30;99.90
9828;DHT22;4953;48.952;9.442;2022-12-07T05:55:16;4.40;99.90
9828;DHT22;4953;48.952;9.442;2022-12-07T05:57:42;4.30;99.90
9828;DHT22;4953;48.952;9.442;2022-12-07T06:00:30;4.30;99.90
9828;DHT22;4953;48.952;9.442;2022-12-07T06:02:56;4.30;99.90
9828;DHT22;4953;48.952;9.442;2022-12-07T06:05:23;4.40;99.90
9828;DHT22;4953;48.952;9.442;2022-12-07T06:07:51;4.40;99.90
9828;DHT22;4953;48.952;9.442;2022-12-07T06:10:18;4.40;99.90
9828;DHT22;4953;48.952;9.442;2022-12-07T06:12:45;4.40;99.90
9828;DHT22;4953;48.952;9.442;2022-12-07T06:15:12;4.40;99.90
9828;DHT22;4953;48.952;9.442;2022-12-07T06:17:39;4.40;99.90
9828;DHT22;4953;48.952;9.442;2022-12-07T06:20:07;4.40;99.90
9828;DHT22;4953;48.952;9.442;2022-12-07T06:22:36;4.40;99.90
9828;DHT22;4953;48.952;9.442;2022-12-07T06:25:05;4.40;99.90
9828;DHT22;4953;48.952;9.442;2022-12-07T06:27:34;4.50;99.90
9828;DHT22;4953;48.952;9.442;2022-12-07T06:30:01;4.50;99.90
9828;DHT22;4953;48.952;9.442;2022-12-07T06:32:32;4.50;99.90
9828;DHT22;4953;48.952;9.442;2022-12-07T06:34:59;4.50;99.90
9828;DHT22;4953;48.952;9.442;2022-12-07T06:37:26;4.50;99.90
9828;DHT22;4953;48.952;9.442;2022-12-07T06:39:53;4.50;99.90
9828;DHT22;4953;48.952;9.442;2022-12-07T06:42:22;4.40;99.90
9828;DHT22;4953;48.952;9.442;2022-12-07T06:44:48;4.40;99.90
9828;DHT22;4953;48.952;9.442;2022-12-07T06:47:15;4.40;99.90
9828;DHT22;4953;48.952;9.442;2022-12-07T06:49:42;4.40;99.90
9828;DHT22;4953;48.952;9.442;2022-12-07T06:52:09;4.40;99.90
9828;DHT22;4953;48.952;9.442;2022-12-07T06:54:36;4.40;99.90
9828;DHT22;4953;48.952;9.442;2022-12-07T06:57:03;4.40;99.90
9828;DHT22;4953;48.952;9.442;2022-12-07T06:59:31;4.50;99.90
9828;DHT22;4953;48.952;9.442;2022-12-07T07:01:58;4.50;99.90
9828;DHT22;4953;48.952;9.442;2022-12-07T07:04:25;4.50;99.90
9828;DHT22;4953;48.952;9.442;2022-12-07T07:06:52;4.40;99.90
9828;DHT22;4953;48.952;9.442;2022-12-07T07:09:19;4.40;99.90
9828;DHT22;4953;48.952;9.442;2022-12-07T07:11:46;4.40;99.90
9828;DHT22;4953;48.952;9.442;2022-12-07T07:14:13;4.40;99.90
9828;DHT22;4953;48.952;9.442;2022-12-07T07:16:45;4.30;99.90
9828;DHT22;4953;48.952;9.442;2022-12-07T07:19:12;4.30;99.90
9828;DHT22;4953;48.952;9.442;2022-12-07T07:21:39;4.30;99.90
9828;DHT22;4953;48.952;9.442;2022-12-07T07:24:07;4.30;99.90
9828;DHT22;4953;48.952;9.442;2022-12-07T07:26:34;4.30;99.90
9828;DHT22;4953;48.952;9.442;2022-12-07T07:29:01;4.30;99.90
9828;DHT22;4953;48.952;9.442;2022-12-07T07:31:28;4.30;99.90
9828;DHT22;4953;48.952;9.442;2022-12-07T07:33:56;4.20;99.90
9828;DHT22;4953;48.952;9.442;2022-12-07T07:36:23;4.20;99.90
9828;DHT22;4953;48.952;9.442;2022-12-07T07:38:51;4.20;99.90
9828;DHT22;4953;48.952;9.442;2022-12-07T07:41:18;4.20;99.90
9828;DHT22;4953;48.952;9.442;2022-12-07T07:43:45;4.20;99.90
9828;DHT22;4953;48.952;9.442;2022-12-07T07:46:12;4.10;99.90
9828;DHT22;4953;48.952;9.442;2022-12-07T07:48:39;4.10;99.90
9828;DHT22;4953;48.952;9.442;2022-12-07T07:51:08;4.10;99.90
9828;DHT22;4953;48.952;9.442;2022-12-07T07:53:35;4.10;99.90
9828;DHT22;4953;48.952;9.442;2022-12-07T07:56:02;4.20;99.90
9828;DHT22;4953;48.952;9.442;2022-12-07T07:58:30;4.20;99.90
9828;DHT22;4953;48.952;9.442;2022-12-07T08:00:57;4.20;99.90
9828;DHT22;4953;48.952;9.442;2022-12-07T08:03:30;4.20;99.90
9828;DHT22;4953;48.952;9.442;2022-12-07T08:05:57;4.30;99.90
9828;DHT22;4953;48.952;9.442;2022-12-07T08:08:25;4.30;99.90
9828;DHT22;4953;48.952;9.442;2022-12-07T08:10:52;4.30;99.90
9828;DHT22;4953;48.952;9.442;2022-12-07T08:13:19;4.30;99.90
9828;DHT22;4953;48.952;9.442;2022-12-07T08:15:47;4.30;99.90
9828;DHT22;4953;48.952;9.442;2022-12-07T08:18:15;4.30;99.90
9828;DHT22;4953;48.952;9.442;2022-12-07T08:20:42;4.30;99.90
9828;DHT22;4953;48.952;9.442;2022-12-07T08:23:10;4.30;99.90
9828;DHT22;4953;48.952;9.442;2022-12-07T08:25:39;4.20;99.90
9828;DHT22;4953;48.952;9.442;2022-12-07T08:28:06;4.10;99.90
9828;DHT22;4953;48.952;9.442;2022-12-07T08:30:34;4.10;99.90
9828;DHT22;4953;48.952;9.442;2022-12-07T08:33:01;4.10;99.90
9828;DHT22;4953;48.952;9.442;2022-12-07T08:35:28;4.00;99.90
9828;DHT22;4953;48.952;9.442;2022-12-07T08:37:55;4.00;99.90
9828;DHT22;4953;48.952;9.442;2022-12-07T08:40:23;4.00;99.90
9828;DHT22;4953;48.952;9.442;2022-12-07T08:42:51;4.00;99.90
9828;DHT22;4953;48.952;9.442;2022-12-07T08:45:20;4.00;99.90
9828;DHT22;4953;48.952;9.442;2022-12-07T08:47:52;4.00;99.90
9828;DHT22;4953;48.952;9.442;2022-12-07T08:50:24;4.00;99.90
9828;DHT22;4953;48.952;9.442;2022-12-07T08:52:53;4.00;99.90
9828;DHT22;4953;48.952;9.442;2022-12-07T08:55:23;4.00;99.90
9828;DHT22;4953;48.952;9.442;2022-12-07T08:57:52;3.90;99.90
9828;DHT22;4953;48.952;9.442;2022-12-07T09:00:20;4.00;99.90
9828;DHT22;4953;48.952;9.442;2022-12-07T09:02:47;3.90;99.90
9828;DHT22;4953;48.952;9.442;2022-12-07T09:05:14;3.90;99.90
9828;DHT22;4953;48.952;9.442;2022-12-07T09:07:43;3.90;99.90
9828;DHT22;4953;48.952;9.442;2022-12-07T09:10:12;3.90;99.90
9828;DHT22;4953;48.952;9.442;2022-12-07T09:12:39;3.90;99.90
9828;DHT22;4953;48.952;9.442;2022-12-07T09:15:08;3.90;99.90
9828;DHT22;4953;48.952;9.442;2022-12-07T09:17:36;3.90;99.90
9828;DHT22;4953;48.952;9.442;2022-12-07T09:20:03;4.00;99.90
9828;DHT22;4953;48.952;9.442;2022-12-07T09:22:32;4.00;99.90
9828;DHT22;4953;48.952;9.442;2022-12-07T09:25:00;4.00;99.90
9828;DHT22;4953;48.952;9.442;2022-12-07T09:27:27;4.00;99.90
9828;DHT22;4953;48.952;9.442;2022-12-07T09:29:55;4.00;99.90
9828;DHT22;4953;48.952;9.442;2022-12-07T09:32:23;4.00;99.90
9828;DHT22;4953;48.952;9.442;2022-12-07T09:34:50;4.00;99.90
9828;DHT22;4953;48.952;9.442;2022-12-07T09:37:17;4.10;99.90
9828;DHT22;4953;48.952;9.442;2022-12-07T09:39:44;4.10;99.90
9828;DHT22;4953;48.952;9.442;2022-12-07T09:42:24;4.10;99.90
9828;DHT22;4953;48.952;9.442;2022-12-07T09:44:55;4.10;99.90
9828;DHT22;4953;48.952;9.442;2022-12-07T09:47:25;4.20;99.90
9828;DHT22;4953;48.952;9.442;2022-12-07T09:49:53;4.20;99.90
9828;DHT22;4953;48.952;9.442;2022-12-07T09:52:27;4.20;99.90
9828;DHT22;4953;48.952;9.442;2022-12-07T09:54:55;4.20;99.90
9828;DHT22;4953;48.952;9.442;2022-12-07T09:57:27;4.20;99.90
9828;DHT22;4953;48.952;9.442;2022-12-07T09:59:59;4.20;99.90
9828;DHT22;4953;48.952;9.442;2022-12-07T10:02:37;4.30;99.90
9828;DHT22;4953;48.952;9.442;2022-12-07T10:05:12;4.30;99.90
9828;DHT22;4953;48.952;9.442;2022-12-07T10:07:41;4.40;99.90
9828;DHT22;4953;48.952;9.442;2022-12-07T10:10:14;4.40;99.90
9828;DHT22;4953;48.952;9.442;2022-12-07T10:12:58;4.40;99.90
9828;DHT22;4953;48.952;9.442;2022-12-07T10:15:48;4.30;99.90
9828;DHT22;4953;48.952;9.442;2022-12-07T10:18:28;4.30;99.90
9828;DHT22;4953;48.952;9.442;2022-12-07T10:21:04;4.30;99.90
9828;DHT22;4953;48.952;9.442;2022-12-07T10:23:37;4.40;99.90
9828;DHT22;4953;48.952;9.442;2022-12-07T10:26:21;4.40;99.90
9828;DHT22;4953;48.952;9.442;2022-12-07T10:28:54;4.40;99.90
9828;DHT22;4953;48.952;9.442;2022-12-07T10:31:23;4.40;99.90
9828;DHT22;4953;48.952;9.442;2022-12-07T10:33:53;4.40;99.90
9828;DHT22;4953;48.952;9.442;2022-12-07T10:36:23;4.50;99.90
9828;DHT22;4953;48.952;9.442;2022-12-07T10:38:53;4.50;99.90
9828;DHT22;4953;48.952;9.442;2022-12-07T10:41:26;4.50;99.90
9828;DHT22;4953;48.952;9.442;2022-12-07T10:43:55;4.40;99.90
9828;DHT22;4953;48.952;9.442;2022-12-07T10:49:45;4.40;99.90
9828;DHT22;4953;48.952;9.442;2022-12-07T10:53:03;4.40;99.90
9828;DHT22;4953;48.952;9.442;2022-12-07T10:56:03;4.40;99.90
9828;DHT22;4953;48.952;9.442;2022-12-07T10:59:10;4.40;99.90
9828;DHT22;4953;48.952;9.442;2022-12-07T11:01:54;4.40;99.90
9828;DHT22;4953;48.952;9.442;2022-12-07T11:04:37;4.40;99.90
9828;DHT22;4953;48.952;9.442;2022-12-07T11:07:14;4.30;99.90
9828;DHT22;4953;48.952;9.442;2022-12-07T11:10:05;4.30;99.90
9828;DHT22;4953;48.952;9.442;2022-12-07T11:12:57;4.30;99.90
9828;DHT22;4953;48.952;9.442;2022-12-07T11:15:48;4.30;99.90
9828;DHT22;4953;48.952;9.442;2022-12-07T11:18:26;4.40;99.90
9828;DHT22;4953;48.952;9.442;2022-12-07T11:21:07;4.40;99.90
9828;DHT22;4953;48.952;9.442;2022-12-07T11:23:49;4.40;99.90
9828;DHT22;4953;48.952;9.442;2022-12-07T11:26:40;4.40;99.90
9828;DHT22;4953;48.952;9.442;2022-12-07T11:29:32;4.40;99.90
9828;DHT22;4953;48.952;9.442;2022-12-07T11:32:19;4.40;99.90
9828;DHT22;4953;48.952;9.442;2022-12-07T11:35:00;4.40;99.90
9828;DHT22;4953;48.952;9.442;2022-12-07T11:37:37;4.50;99.90
9828;DHT22;4953;48.952;9.442;2022-12-07T11:40:15;4.50;99.90
9828;DHT22;4953;48.952;9.442;2022-12-07T11:42:53;4.50;99.90
9828;DHT22;4953;48.952;9.442;2022-12-07T11:45:27;4.60;99.90
9828;DHT22;4953;48.952;9.442;2022-12-07T11:48:00;4.60;99.90
9828;DHT22;4953;48.952;9.442;2022-12-07T11:50:36;4.60;99.90
9828;DHT22;4953;48.952;9.442;2022-12-07T11:53:14;4.70;99.90
9828;DHT22;4953;48.952;9.442;2022-12-07T11:55:49;4.70;99.90
9828;DHT22;4953;48.952;9.442;2022-12-07T11:58:30;4.80;99.90
9828;DHT22;4953;48.952;9.442;2022-12-07T12:01:14;4.80;99.90
9828;DHT22;4953;48.952;9.442;2022-12-07T12:03:50;4.90;99.90
9828;DHT22;4953;48.952;9.442;2022-12-07T12:06:21;4.90;99.90
9828;DHT22;4953;48.952;9.442;2022-12-07T12:08:54;4.80;99.90
9828;DHT22;4953;48.952;9.442;2022-12-07T12:11:39;4.90;99.90
9828;DHT22;4953;48.952;9.442;2022-12-07T12:14:32;4.90;99.90
9828;DHT22;4953;48.952;9.442;2022-12-07T12:17:40;4.90;99.90
9828;DHT22;4953;48.952;9.442;2022-12-07T12:20:22;4.90;99.90
9828;DHT22;4953;48.952;9.442;2022-12-07T12:22:57;4.90;99.90
9828;DHT22;4953;48.952;9.442;2022-12-07T12:25:35;4.90;99.90
9828;DHT22;4953;48.952;9.442;2022-12-07T12:28:20;4.90;99.90
9828;DHT22;4953;48.952;9.442;2022-12-07T12:31:05;4.90;99.90
9828;DHT22;4953;48.952;9.442;2022-12-07T12:33:36;4.90;99.90
9828;DHT22;4953;48.952;9.442;2022-12-07T12:36:19;4.90;99.90
9828;DHT22;4953;48.952;9.442;2022-12-07T12:38:51;4.80;99.90
9828;DHT22;4953;48.952;9.442;2022-12-07T12:41:57;4.80;99.90
9828;DHT22;4953;48.952;9.442;2022-12-07T12:45:03;4.80;99.90
9828;DHT22;4953;48.952;9.442;2022-12-07T12:47:53;4.80;99.90
9828;DHT22;4953;48.952;9.442;2022-12-07T12:50:28;4.80;99.90
9828;DHT22;4953;48.952;9.442;2022-12-07T12:53:16;4.80;99.90
9828;DHT22;4953;48.952;9.442;2022-12-07T12:56:14;4.70;99.90
9828;DHT22;4953;48.952;9.442;2022-12-07T12:59:21;4.70;99.90
9828;DHT22;4953;48.952;9.442;2022-12-07T13:01:51;4.80;99.90
9828;DHT22;4953;48.952;9.442;2022-12-07T13:07:53;4.80;99.90
9828;DHT22;4953;48.952;9.442;2022-12-07T13:10:44;4.80;99.90
9828;DHT22;4953;48.952;9.442;2022-12-07T13:13:35;4.70;99.90
9828;DHT22;4953;48.952;9.442;2022-12-07T13:22:38;4.50;99.90
9828;DHT22;4953;48.952;9.442;2022-12-07T13:25:12;4.60;99.90
9828;DHT22;4953;48.952;9.442;2022-12-07T13:27:51;4.60;99.90
9828;DHT22;4953;48.952;9.442;2022-12-07T13:30:24;4.60;99.90
9828;DHT22;4953;48.952;9.442;2022-12-07T13:32:57;4.70;99.90
9828;DHT22;4953;48.952;9.442;2022-12-07T13:35:33;4.70;99.90
9828;DHT22;4953;48.952;9.442;2022-12-07T13:38:05;4.80;99.90
9828;DHT22;4953;48.952;9.442;2022-12-07T13:40:43;4.80;99.90
9828;DHT22;4953;48.952;9.442;2022-12-07T13:43:26;4.70;99.90
9828;DHT22;4953;48.952;9.442;2022-12-07T13:45:56;4.70;99.90
9828;DHT22;4953;48.952;9.442;2022-12-07T13:48:32;4.70;99.90
9828;DHT22;4953;48.952;9.442;2022-12-07T13:51:04;4.70;99.90
9828;DHT22;4953;48.952;9.442;2022-12-07T13:53:31;4.70;99.90
9828;DHT22;4953;48.952;9.442;2022-12-07T13:55:59;4.70;99.90
9828;DHT22;4953;48.952;9.442;2022-12-07T13:58:30;4.70;99.90
9828;DHT22;4953;48.952;9.442;2022-12-07T14:00:59;4.70;99.90
9828;DHT22;4953;48.952;9.442;2022-12-07T14:03:31;4.70;99.90
9828;DHT22;4953;48.952;9.442;2022-12-07T14:06:17;4.70;99.90
9828;DHT22;4953;48.952;9.442;2022-12-07T14:09:14;4.80;99.90
9828;DHT22;4953;48.952;9.442;2022-12-07T14:11:45;4.80;99.90
9828;DHT22;4953;48.952;9.442;2022-12-07T14:14:17;4.80;99.90
9828;DHT22;4953;48.952;9.442;2022-12-07T14:16:56;4.80;99.90
9828;DHT22;4953;48.952;9.442;2022-12-07T14:19:47;4.80;99.90
9828;DHT22;4953;48.952;9.442;2022-12-07T14:22:31;4.80;99.90
9828;DHT22;4953;48.952;9.442;2022-12-07T14:25:19;4.80;99.90
9828;DHT22;4953;48.952;9.442;2022-12-07T14:27:51;4.70;99.90
9828;DHT22;4953;48.952;9.442;2022-12-07T14:30:24;4.70;99.90
9828;DHT22;4953;48.952;9.442;2022-12-07T14:32:55;4.80;99.90
9828;DHT22;4953;48.952;9.442;2022-12-07T14:35:27;4.80;99.90
9828;DHT22;4953;48.952;9.442;2022-12-07T14:37:55;4.80;99.90
9828;DHT22;4953;48.952;9.442;2022-12-07T14:40:23;4.80;99.90
9828;DHT22;4953;48.952;9.442;2022-12-07T14:42:55;4.80;99.90
9828;DHT22;4953;48.952;9.442;2022-12-07T14:45:26;4.80;99.90
9828;DHT22;4953;48.952;9.442;2022-12-07T14:47:53;4.90;99.90
9828;DHT22;4953;48.952;9.442;2022-12-07T14:50:21;4.90;99.90
9828;DHT22;4953;48.952;9.442;2022-12-07T14:52:52;4.90;99.90
9828;DHT22;4953;48.952;9.442;2022-12-07T14:55:24;4.90;99.90
9828;DHT22;4953;48.952;9.442;2022-12-07T14:57:52;4.90;99.90
9828;DHT22;4953;48.952;9.442;2022-12-07T15:00:21;4.90;99.90
9828;DHT22;4953;48.952;9.442;2022-12-07T15:02:50;4.90;99.90
9828;DHT22;4953;48.952;9.442;2022-12-07T15:05:18;4.90;99.90
9828;DHT22;4953;48.952;9.442;2022-12-07T15:07:46;4.90;99.90
9828;DHT22;4953;48.952;9.442;2022-12-07T15:10:17;4.80;99.90
9828;DHT22;4953;48.952;9.442;2022-12-07T15:12:46;4.80;99.90
9828;DHT22;4953;48.952;9.442;2022-12-07T15:15:13;4.80;99.90
9828;DHT22;4953;48.952;9.442;2022-12-07T15:17:41;4.80;99.90
9828;DHT22;4953;48.952;9.442;2022-12-07T15:20:12;4.80;99.90
9828;DHT22;4953;48.952;9.442;2022-12-07T15:22:40;4.80;99.90
9828;DHT22;4953;48.952;9.442;2022-12-07T15:25:08;4.80;99.90
9828;DHT22;4953;48.952;9.442;2022-12-07T15:27:41;4.80;99.90
9828;DHT22;4953;48.952;9.442;2022-12-07T15:30:08;4.80;99.90
9828;DHT22;4953;48.952;9.442;2022-12-07T15:32:35;4.80;99.90
9828;DHT22;4953;48.952;9.442;2022-12-07T15:35:03;4.70;99.90
9828;DHT22;4953;48.952;9.442;2022-12-07T15:37:30;4.70;99.90
9828;DHT22;4953;48.952;9.442;2022-12-07T15:39:57;4.70;99.90
9828;DHT22;4953;48.952;9.442;2022-12-07T15:42:24;4.70;99.90
9828;DHT22;4953;48.952;9.442;2022-12-07T15:44:52;4.80;99.90
9828;DHT22;4953;48.952;9.442;2022-12-07T15:47:31;4.90;99.90
9828;DHT22;4953;48.952;9.442;2022-12-07T15:49:58;4.90;99.90
9828;DHT22;4953;48.952;9.442;2022-12-07T15:52:25;4.90;99.90
9828;DHT22;4953;48.952;9.442;2022-12-07T15:54:52;4.90;99.90
9828;DHT22;4953;48.952;9.442;2022-12-07T15:57:20;5.00;99.90
9828;DHT22;4953;48.952;9.442;2022-12-07T15:59:47;5.00;99.90
9828;DHT22;4953;48.952;9.442;2022-12-07T16:02:15;5.00;99.90
9828;DHT22;4953;48.952;9.442;2022-12-07T16:04:42;5.00;99.90
9828;DHT22;4953;48.952;9.442;2022-12-07T16:07:10;5.00;99.90
9828;DHT22;4953;48.952;9.442;2022-12-07T16:09:40;4.90;99.90
9828;DHT22;4953;48.952;9.442;2022-12-07T16:12:07;4.70;99.90
9828;DHT22;4953;48.952;9.442;2022-12-07T16:14:34;4.70;99.90
9828;DHT22;4953;48.952;9.442;2022-12-07T16:17:01;4.60;99.90
9828;DHT22;4953;48.952;9.442;2022-12-07T16:19:31;4.50;99.90
9828;DHT22;4953;48.952;9.442;2022-12-07T16:21:58;4.50;99.90
9828;DHT22;4953;48.952;9.442;2022-12-07T16:24:26;4.40;99.90
9828;DHT22;4953;48.952;9.442;2022-12-07T16:26:53;4.40;99.90
9828;DHT22;4953;48.952;9.442;2022-12-07T16:29:21;4.30;99.90
9828;DHT22;4953;48.952;9.442;2022-12-07T16:31:49;4.30;99.90
9828;DHT22;4953;48.952;9.442;2022-12-07T16:34:18;4.30;99.90
9828;DHT22;4953;48.952;9.442;2022-12-07T16:36:46;4.30;99.90
9828;DHT22;4953;48.952;9.442;2022-12-07T16:39:13;4.20;99.90
9828;DHT22;4953;48.952;9.442;2022-12-07T16:41:41;4.20;99.90
9828;DHT22;4953;48.952;9.442;2022-12-07T16:44:11;4.20;99.90
9828;DHT22;4953;48.952;9.442;2022-12-07T16:46:39;4.20;99.90
9828;DHT22;4953;48.952;9.442;2022-12-07T16:49:08;4.20;99.90
9828;DHT22;4953;48.952;9.442;2022-12-07T16:51:37;4.10;99.90
9828;DHT22;4953;48.952;9.442;2022-12-07T16:54:06;4.10;99.90
9828;DHT22;4953;48.952;9.442;2022-12-07T16:56:33;4.10;99.90
9828;DHT22;4953;48.952;9.442;2022-12-07T16:59:00;4.20;99.90
9828;DHT22;4953;48.952;9.442;2022-12-07T17:01:27;4.20;99.90
9828;DHT22;4953;48.952;9.442;2022-12-07T17:03:55;4.20;99.90
9828;DHT22;4953;48.952;9.442;2022-12-07T17:06:26;4.20;99.90
9828;DHT22;4953;48.952;9.442;2022-12-07T17:08:54;4.20;99.90
9828;DHT22;4953;48.952;9.442;2022-12-07T17:11:25;4.30;99.90
9828;DHT22;4953;48.952;9.442;2022-12-07T17:13:54;4.20;99.90
9828;DHT22;4953;48.952;9.442;2022-12-07T17:16:39;4.20;99.90
9828;DHT22;4953;48.952;9.442;2022-12-07T17:19:06;4.20;99.90
9828;DHT22;4953;48.952;9.442;2022-12-07T17:21:36;4.10;99.90
9828;DHT22;4953;48.952;9.442;2022-12-07T17:24:05;4.20;99.90
9828;DHT22;4953;48.952;9.442;2022-12-07T17:26:35;4.20;99.90
9828;DHT22;4953;48.952;9.442;2022-12-07T17:29:03;4.20;99.90
9828;DHT22;4953;48.952;9.442;2022-12-07T17:31:31;4.30;99.90
9828;DHT22;4953;48.952;9.442;2022-12-07T17:33:58;4.40;99.90
9828;DHT22;4953;48.952;9.442;2022-12-07T17:36:28;4.30;99.90
9828;DHT22;4953;48.952;9.442;2022-12-07T17:38:56;4.30;99.90
9828;DHT22;4953;48.952;9.442;2022-12-07T17:41:25;4.30;99.90
9828;DHT22;4953;48.952;9.442;2022-12-07T17:44:14;4.30;99.90
9828;DHT22;4953;48.952;9.442;2022-12-07T17:46:44;4.30;99.90
9828;DHT22;4953;48.952;9.442;2022-12-07T17:49:12;4.40;99.90
9828;DHT22;4953;48.952;9.442;2022-12-07T17:51:39;4.40;99.90
9828;DHT22;4953;48.952;9.442;2022-12-07T17:54:23;4.40;99.90
9828;DHT22;4953;48.952;9.442;2022-12-07T17:56:50;4.40;99.90
9828;DHT22;4953;48.952;9.442;2022-12-07T17:59:18;4.40;99.90
9828;DHT22;4953;48.952;9.442;2022-12-07T18:01:46;4.30;99.90
9828;DHT22;4953;48.952;9.442;2022-12-07T18:04:13;4.30;99.90
9828;DHT22;4953;48.952;9.442;2022-12-07T18:06:40;4.30;99.90
9828;DHT22;4953;48.952;9.442;2022-12-07T18:09:07;4.30;99.90
9828;DHT22;4953;48.952;9.442;2022-12-07T18:11:35;4.30;99.90
9828;DHT22;4953;48.952;9.442;2022-12-07T18:14:02;4.30;99.90
9828;DHT22;4953;48.952;9.442;2022-12-07T18:16:32;4.30;99.90
9828;DHT22;4953;48.952;9.442;2022-12-07T18:19:00;4.30;99.90
9828;DHT22;4953;48.952;9.442;2022-12-07T18:21:29;4.30;99.90
9828;DHT22;4953;48.952;9.442;2022-12-07T18:23:58;4.30;99.90
9828;DHT22;4953;48.952;9.442;2022-12-07T18:26:28;4.30;99.90
9828;DHT22;4953;48.952;9.442;2022-12-07T18:28:58;4.40;99.90
9828;DHT22;4953;48.952;9.442;2022-12-07T18:31:26;4.50;99.90
9828;DHT22;4953;48.952;9.442;2022-12-07T18:33:55;4.50;99.90
9828;DHT22;4953;48.952;9.442;2022-12-07T18:36:27;4.50;99.90
9828;DHT22;4953;48.952;9.442;2022-12-07T18:38:54;4.50;99.90
9828;DHT22;4953;48.952;9.442;2022-12-07T18:41:21;4.50;99.90
9828;DHT22;4953;48.952;9.442;2022-12-07T18:43:48;4.50;99.90
9828;DHT22;4953;48.952;9.442;2022-12-07T18:46:16;4.60;99.90
9828;DHT22;4953;48.952;9.442;2022-12-07T18:48:45;4.60;99.90
9828;DHT22;4953;48.952;9.442;2022-12-07T18:51:16;4.60;99.90
9828;DHT22;4953;48.952;9.442;2022-12-07T18:53:45;4.60;99.90
9828;DHT22;4953;48.952;9.442;2022-12-07T18:56:13;4.60;99.90
9828;DHT22;4953;48.952;9.442;2022-12-07T18:58:43;4.40;99.90
9828;DHT22;4953;48.952;9.442;2022-12-07T19:01:32;4.40;99.90
9828;DHT22;4953;48.952;9.442;2022-12-07T19:04:01;4.40;99.90
9828;DHT22;4953;48.952;9.442;2022-12-07T19:06:29;4.40;99.90
9828;DHT22;4953;48.952;9.442;2022-12-07T19:08:57;4.40;99.90
9828;DHT22;4953;48.952;9.442;2022-12-07T19:11:26;4.50;99.90
9828;DHT22;4953;48.952;9.442;2022-12-07T19:14:13;4.50;99.90
9828;DHT22;4953;48.952;9.442;2022-12-07T19:16:43;4.60;99.90
9828;DHT22;4953;48.952;9.442;2022-12-07T19:19:10;4.60;99.90
9828;DHT22;4953;48.952;9.442;2022-12-07T19:21:39;4.60;99.90
9828;DHT22;4953;48.952;9.442;2022-12-07T19:24:06;4.60;99.90
9828;DHT22;4953;48.952;9.442;2022-12-07T19:26:34;4.60;99.90
9828;DHT22;4953;48.952;9.442;2022-12-07T19:29:01;4.60;99.90
9828;DHT22;4953;48.952;9.442;2022-12-07T19:31:28;4.60;99.90
9828;DHT22;4953;48.952;9.442;2022-12-07T19:33:55;4.60;99.90
9828;DHT22;4953;48.952;9.442;2022-12-07T19:36:22;4.70;99.90
9828;DHT22;4953;48.952;9.442;2022-12-07T19:38:52;4.70;99.90
9828;DHT22;4953;48.952;9.442;2022-12-07T19:41:19;4.70;99.90
9828;DHT22;4953;48.952;9.442;2022-12-07T19:44:04;4.70;99.90
9828;DHT22;4953;48.952;9.442;2022-12-07T19:46:32;4.70;99.90
9828;DHT22;4953;48.952;9.442;2022-12-07T19:49:00;4.70;99.90
9828;DHT22;4953;48.952;9.442;2022-12-07T19:51:28;4.70;99.90
9828;DHT22;4953;48.952;9.442;2022-12-07T19:53:58;4.70;99.90
9828;DHT22;4953;48.952;9.442;2022-12-07T19:56:28;4.80;99.90
9828;DHT22;4953;48.952;9.442;2022-12-07T19:58:58;4.70;99.90
9828;DHT22;4953;48.952;9.442;2022-12-07T20:01:27;4.70;99.90
9828;DHT22;4953;48.952;9.442;2022-12-07T20:03:55;4.70;99.90
9828;DHT22;4953;48.952;9.442;2022-12-07T20:06:22;4.80;99.90
9828;DHT22;4953;48.952;9.442;2022-12-07T20:08:50;4.80;99.90
9828;DHT22;4953;48.952;9.442;2022-12-07T20:11:19;4.80;99.90
9828;DHT22;4953;48.952;9.442;2022-12-07T20:14:05;4.80;99.90
9828;DHT22;4953;48.952;9.442;2022-12-07T20:16:33;4.80;99.90
9828;DHT22;4953;48.952;9.442;2022-12-07T20:19:00;4.80;99.90
9828;DHT22;4953;48.952;9.442;2022-12-07T20:21:27;4.80;99.90
9828;DHT22;4953;48.952;9.442;2022-12-07T20:23:54;4.70;99.90
9828;DHT22;4953;48.952;9.442;2022-12-07T20:26:23;4.80;99.90
9828;DHT22;4953;48.952;9.442;2022-12-07T20:28:49;4.80;99.90
9828;DHT22;4953;48.952;9.442;2022-12-07T20:31:17;4.80;99.90
9828;DHT22;4953;48.952;9.442;2022-12-07T20:33:44;4.80;99.90
9828;DHT22;4953;48.952;9.442;2022-12-07T20:36:12;4.70;99.90
9828;DHT22;4953;48.952;9.442;2022-12-07T20:38:41;4.80;99.90
9828;DHT22;4953;48.952;9.442;2022-12-07T20:41:10;4.80;99.90
9828;DHT22;4953;48.952;9.442;2022-12-07T20:43:54;4.70;99.90
9828;DHT22;4953;48.952;9.442;2022-12-07T20:46:21;4.80;99.90
9828;DHT22;4953;48.952;9.442;2022-12-07T20:48:48;4.80;99.90
9828;DHT22;4953;48.952;9.442;2022-12-07T20:51:16;4.70;99.90
9828;DHT22;4953;48.952;9.442;2022-12-07T20:53:43;4.80;99.90
9828;DHT22;4953;48.952;9.442;2022-12-07T20:56:17;4.70;99.90
9828;DHT22;4953;48.952;9.442;2022-12-07T20:58:45;4.80;99.90
9828;DHT22;4953;48.952;9.442;2022-12-07T21:01:14;4.70;99.90
9828;DHT22;4953;48.952;9.442;2022-12-07T21:03:42;4.70;99.90
9828;DHT22;4953;48.952;9.442;2022-12-07T21:06:11;4.60;99.90
9828;DHT22;4953;48.952;9.442;2022-12-07T21:08:38;4.70;99.90
9828;DHT22;4953;48.952;9.442;2022-12-07T21:11:09;4.60;99.90
9828;DHT22;4953;48.952;9.442;2022-12-07T21:13:37;4.60;99.90
9828;DHT22;4953;48.952;9.442;2022-12-07T21:16:08;4.70;99.90
9828;DHT22;4953;48.952;9.442;2022-12-07T21:18:38;4.70;99.90
9828;DHT22;4953;48.952;9.442;2022-12-07T21:21:06;4.70;99.90
9828;DHT22;4953;48.952;9.442;2022-12-07T21:23:34;4.70;99.90
9828;DHT22;4953;48.952;9.442;2022-12-07T21:26:08;4.60;99.90
9828;DHT22;4953;48.952;9.442;2022-12-07T21:28:35;4.50;99.90
9828;DHT22;4953;48.952;9.442;2022-12-07T21:31:03;4.50;99.90
9828;DHT22;4953;48.952;9.442;2022-12-07T21:33:30;4.50;99.90
9828;DHT22;4953;48.952;9.442;2022-12-07T21:35:59;4.50;99.90
9828;DHT22;4953;48.952;9.442;2022-12-07T21:38:29;4.60;99.90
9828;DHT22;4953;48.952;9.442;2022-12-07T21:40:56;4.60;99.90
9828;DHT22;4953;48.952;9.442;2022-12-07T21:43:25;4.60;99.90
9828;DHT22;4953;48.952;9.442;2022-12-07T21:45:53;4.60;99.90
9828;DHT22;4953;48.952;9.442;2022-12-07T21:48:21;4.60;99.90
9828;DHT22;4953;48.952;9.442;2022-12-07T21:50:47;4.60;99.90
9828;DHT22;4953;48.952;9.442;2022-12-07T21:53:16;4.60;99.90
9828;DHT22;4953;48.952;9.442;2022-12-07T21:55:43;4.60;99.90
9828;DHT22;4953;48.952;9.442;2022-12-07T21:58:11;4.50;99.90